< < Back
Terminal Aerodrome Forecast


Current Version              Previous Versions:   1  2  3  4  5  6  7  8  9  

Terminal Aerodrome Forecast

915
FTUS42 KJAX 240435 AAC
TAFJAX
TAF AMD
KJAX 240435Z 2405/2424 09006KT P6SM SCT030
     FM241300 09012KT P6SM SCT035
     FM241600 10013G18KT P6SM SCT025 BKN035 OVC060=

Latest METAR

887
SAUS80 KWBC 250100 RRA
MTRJAX
METAR KJAX 250056Z 07011KT 10SM SCT019 SCT032 BKN250 24/21 A3022 RMK AO2
RAB44E53 SLP233 P0000 T02440211


USA.gov is the U.S. government's official web portal to all federal, state and local government web resources and services.